Time;durP1;ratioP1;P1;durP2;ratioP2;P2;SDS_P1;SDS_P2;PMS_P1;PMS_P2;Temp;Humidity;BMP_temperature;BMP_pressure;BME280_temperature;BME280_humidity;BME280_pressure;Samples;Min_cycle;Max_cycle;Signal;HPM_P1;HPM_P2
2021/06/28 00:01:13;;;;;;;7.03;6.43;;;;;;;25.71;52.76;94619.67;828724;71;29705;-78
2021/06/28 00:16:07;;;;;;;7.90;7.30;;;;;;;;;;834192;71;29720;-79
2021/06/28 00:31:08;;;;;;;8.50;7.70;;;;;;;;;;834230;71;30231;-78
2021/06/28 00:46:15;;;;;;;8.00;7.20;;;;;;;25.63;53.29;94631.56;827500;71;33268;-79
2021/06/28 01:01:13;;;;;;;7.80;7.10;;;;;;;;;;827719;71;33177;-78
2021/06/28 01:16:14;;;;;;;8.13;7.33;;;;;;;25.41;53.54;94618.64;831326;71;32741;-78
2021/06/28 01:31:10;;;;;;;7.53;6.93;;;;;;;25.47;54.37;94613.09;828323;71;30238;-77
2021/06/28 01:46:08;;;;;;;7.90;7.20;;;;;;;25.13;54.29;94629.45;834531;71;29715;-76
2021/06/28 02:01:14;;;;;;;9.63;8.70;;;;;;;24.38;55.21;94637.82;829512;71;32681;-78
2021/06/28 02:16:12;;;;;;;8.70;7.97;;;;;;;23.60;58.35;94645.37;828609;71;32061;-77
2021/06/28 02:31:10;;;;;;;9.70;8.70;;;;;;;23.87;58.30;94644.50;834214;71;29690;-77
2021/06/28 02:46:14;;;;;;;9.83;8.93;;;;;;;24.23;57.11;94638.88;834289;71;32646;-78
2021/06/28 03:16:09;;;;;;;8.57;7.77;;;;;;;24.54;55.88;94659.63;828581;71;29667;-77
2021/06/28 03:31:15;;;;;;;9.10;8.30;;;;;;;24.81;55.42;94643.30;827960;71;32770;-76
2021/06/28 03:46:08;;;;;;;10.20;9.30;;;;;;;24.98;54.30;94656.05;834148;71;30054;-78
2021/06/28 04:01:14;;;;;;;8.70;8.00;;;;;;;24.02;56.89;94677.56;828067;71;33177;-78
2021/06/28 04:16:15;;;;;;;8.20;7.40;;;;;;;24.63;55.32;94672.13;827526;71;32702;-76
2021/06/28 04:31:09;;;;;;;11.03;10.07;;;;;;;25.16;54.19;94675.70;834213;71;30333;-77
2021/06/28 04:46:15;;;;;;;10.30;9.30;;;;;;;25.15;53.96;94682.20;827419;71;33136;-75
2021/06/28 05:01:15;;;;;;;12.10;8.40;;;;;;;25.66;51.08;94694.53;827186;71;32718;-76
2021/06/28 05:16:14;;;;;;;8.60;7.80;;;;;;;25.78;51.01;94695.52;828051;71;33092;-82
2021/06/28 05:31:08;;;;;;;10.20;8.87;;;;;;;25.65;51.50;94699.14;828959;71;29694;-83
2021/06/28 05:46:08;;;;;;;13.20;9.03;;;;;;;25.76;51.14;94720.09;828562;71;29777;-82
2021/06/28 06:01:09;;;;;;;11.20;9.30;;;;;;;26.16;50.02;94732.33;828459;71;30416;-82
2021/06/28 06:16:14;;;;;;;9.87;8.97;;;;;;;26.25;49.87;94740.78;827783;71;32649;-82
2021/06/28 06:31:13;;;;;;;10.33;9.43;;;;;;;;;;834162;71;32816;-83
2021/06/28 06:46:18;;;;;;;10.70;9.70;;;;;;;;;;834206;71;33301;-81
2021/06/28 07:01:17;;;;;;;9.70;8.70;;;;;;;27.96;45.69;94736.31;827943;71;32737;-82
2021/06/28 07:16:15;;;;;;;9.03;8.13;;;;;;;28.94;43.87;94726.35;827646;71;32698;-82
2021/06/28 07:31:15;;;;;;;7.80;7.20;;;;;;;30.40;40.83;94711.50;827895;71;32709;-81
2021/06/28 07:46:15;;;;;;;7.23;6.60;;;;;;;31.34;37.27;94704.66;827744;71;33460;-81
2021/06/28 08:01:08;;;;;;;7.92;6.90;;;;;;;32.36;35.26;94712.26;828912;71;29538;-84
2021/06/28 08:16:16;;;;;;;7.53;6.93;;;;;;;32.07;34.19;94713.52;828439;71;31827;-84
2021/06/28 08:31:15;;;;;;;6.17;5.67;;;;;;;32.50;30.94;94732.33;835008;71;30737;-81
2021/06/28 08:46:23;;;;;;;6.30;5.90;;;;;;;32.89;31.30;94719.75;834365;71;30726;-84
2021/06/28 09:16:20;;;;;;;5.03;4.63;;;;;;;31.45;29.24;94716.70;828452;71;28904;-81
2021/06/28 09:31:44;;;;;;;5.37;5.03;;;;;;;32.13;28.26;94718.61;822475;71;32086;-82
2021/06/28 09:46:17;;;;;;;4.37;4.07;;;;;;;32.71;28.31;94714.76;821284;71;28129;-84
2021/06/28 10:01:18;;;;;;;4.83;4.50;;;;;;;33.82;27.45;94711.66;834459;71;30782;-83
2021/06/28 10:16:20;;;;;;;5.20;4.90;;;;;;;33.65;27.02;94703.58;834636;71;30749;-84
2021/06/28 10:31:11;;;;;;;4.60;4.30;;;;;;;34.37;27.29;94695.24;834591;71;28183;-83
2021/06/28 10:46:36;;;;;;;4.57;4.20;;;;;;;33.78;26.28;94657.33;822042;71;30946;-85
2021/06/28 11:01:17;;;;;;;3.80;3.60;;;;;;;34.41;25.28;94668.64;827577;71;30698;-86
2021/06/28 11:31:10;;;;;;;3.10;2.90;;;;;;;34.97;23.81;94655.70;822248;71;27791;-83
2021/06/28 11:46:18;;;;;;;3.40;3.20;;;;;;;34.69;23.91;94626.86;787707;74;31083;-84
2021/06/28 12:01:21;;;;;;;2.40;2.30;;;;;;;34.78;23.71;94622.68;821396;71;30995;-86
2021/06/28 12:16:18;;;;;;;3.00;2.90;;;;;;;34.86;24.19;94613.05;828858;71;32659;-85
2021/06/28 12:31:17;;;;;;;3.20;3.00;;;;;;;34.84;24.24;94611.36;821232;71;32821;-84
2021/06/28 12:46:20;;;;;;;3.37;3.07;;;;;;;34.58;24.37;94596.43;829768;71;32747;-83
2021/06/28 13:01:16;;;;;;;3.07;2.97;;;;;;;34.09;24.50;94578.55;786447;74;32783;-81
2021/06/28 13:31:18;;;;;;;3.13;2.93;;;;;;;33.70;24.79;94560.14;827791;71;32713;-85
2021/06/28 13:46:28;;;;;;;2.70;2.60;;;;;;;33.75;25.00;94562.91;828898;71;32862;-88
2021/06/28 14:01:15;;;;;;;2.60;2.50;;;;;;;33.52;24.05;94551.13;821280;71;33260;-84
2021/06/28 14:16:17;;;;;;;4.47;3.50;;;;;;;33.35;22.78;94547.58;834655;71;32837;-85
2021/06/28 14:31:11;;;;;;;2.50;2.40;;;;;;;33.11;22.07;94547.87;829333;71;31517;-85
2021/06/28 14:46:53;;;;;;;2.43;2.33;;;;;;;32.67;21.90;94526.55;816176;72;32920;-83
2021/06/28 15:31:29;;;;;;;3.80;3.50;;;;;;;32.12;23.15;94520.22;808492;72;33236;-84
2021/06/28 15:46:13;;;;;;;4.10;3.80;;;;;;;31.91;24.07;94518.16;828607;71;32159;-86
2021/06/28 16:01:17;;;;;;;4.97;4.63;;;;;;;31.65;24.59;94522.68;830112;70;32657;-85
2021/06/28 16:16:21;;;;;;;4.70;4.40;;;;;;;31.37;24.87;94524.64;830040;71;31417;-85
2021/06/28 16:31:20;;;;;;;6.40;5.90;;;;;;;31.05;25.79;94524.77;829516;71;32685;-85
2021/06/28 16:46:14;;;;;;;7.47;6.53;;;;;;;29.51;41.81;94543.06;794344;74;32454;-85
2021/06/28 17:01:29;;;;;;;7.37;6.63;;;;;;;28.89;44.55;94550.41;827267;71;32735;-80
2021/06/28 17:16:08;;;;;;;7.20;6.10;;;;;;;28.57;45.45;94558.30;833862;71;29649;-79
2021/06/28 17:31:16;;;;;;;10.23;6.87;;;;;;;28.27;45.98;94558.37;834072;71;32761;-77
2021/06/28 17:46:13;;;;;;;7.50;6.93;;;;;;;27.86;47.64;94565.04;822781;71;33057;-80
2021/06/28 18:01:15;;;;;;;7.40;6.67;;;;;;;27.27;49.35;94565.81;820205;71;32843;-75
2021/06/28 18:16:14;;;;;;;7.20;6.60;;;;;;;27.06;49.88;94565.32;819726;71;32823;-81
2021/06/28 18:31:08;;;;;;;8.40;7.63;;;;;;;26.87;100.00;123165.94;822918;71;30195;-77
2021/06/28 18:46:17;;;;;;;8.13;7.43;;;;;;;26.32;51.77;94583.98;825395;71;32969;-79
2021/06/28 19:01:14;;;;;;;8.43;7.00;;;;;;;26.06;52.68;94582.47;820346;71;31857;-77
2021/06/28 19:16:14;;;;;;;8.33;7.60;;;;;;;26.65;52.25;94608.35;821108;71;31791;-78
2021/06/28 19:31:12;;;;;;;8.60;7.70;;;;;;;;;;821230;71;29492;-76
2021/06/28 19:46:15;;;;;;;9.27;8.37;;;;;;;-146.52;100.00;123554.02;828004;71;31715;-73
2021/06/28 20:01:10;;;;;;;11.33;10.23;;;;;;;26.13;100.00;123554.15;829086;71;29252;-79
2021/06/28 20:31:11;;;;;;;10.50;9.50;;;;;;;25.40;53.26;94614.41;828580;70;30527;-76
2021/06/28 20:47:00;;;;;;;9.90;9.10;;;;;;;25.21;54.19;94609.34;775592;75;32185;-75
2021/06/28 21:16:17;;;;;;;10.60;9.60;;;;;;;25.53;52.23;94614.84;834151;71;32250;-79
2021/06/28 21:31:23;;;;;;;9.67;8.87;;;;;;;26.05;51.53;94625.29;834300;71;31750;-78
2021/06/28 21:46:16;;;;;;;9.70;8.70;;;;;;;26.33;50.54;94637.97;827393;71;31992;-78
2021/06/28 22:01:09;;;;;;;9.10;8.20;;;;;;;26.22;50.09;94637.20;825302;71;29257;-79
